Zigzag, Oregon
Current Conditions -  °F | °C
As of 3:39 AM on Sunday 21 Dec 2014 (Local Time) from K4S2 Reporting Station
Overcast Overcast  
Wind Chill: 55°   Ceiling: 7500
Heat Index: 55°   Visibility: 10mi
Dew Point: 46°   Wind: 10mph
Humidity: 72%   Direction: 280°W
Pressure: 29.76"   Gusts: 18mph
Location:  45.3555°N, 121.853°W
Report Text: K4S2 211139Z AUTO 28009G16KT 240V310 10SM SCT050 BKN075 OVC090 13/08 A2976 RMK AO2 SLP094 T01300080
Loading
Personal Weather Stations






























Interactive Weather Map New forecast layout! Learn more

10-Day Weather Forecast

Advertisements
Track Severe Weather on mobile